sensor_id;sensor_type;location;lat;lon;timestamp;P1;durP1;ratioP1;P2;durP2;ratioP2
6467;SDS011;3267;48.794;9.928;2023-10-13T04:01:23;9.38;;;2.50;;
6467;SDS011;3267;48.794;9.928;2023-10-13T04:04:08;4.78;;;2.38;;
6467;SDS011;3267;48.794;9.928;2023-10-13T04:06:39;5.85;;;2.95;;
6467;SDS011;3267;48.794;9.928;2023-10-13T04:09:14;7.13;;;2.83;;
6467;SDS011;3267;48.794;9.928;2023-10-13T04:12:09;6.47;;;3.08;;
6467;SDS011;3267;48.794;9.928;2023-10-13T04:14:41;4.60;;;2.80;;
6467;SDS011;3267;48.794;9.928;2023-10-13T04:17:14;7.32;;;2.92;;
6467;SDS011;3267;48.794;9.928;2023-10-13T04:19:43;5.85;;;3.08;;
6467;SDS011;3267;48.794;9.928;2023-10-13T04:25:14;6.80;;;2.67;;
6467;SDS011;3267;48.794;9.928;2023-10-13T04:28:02;4.38;;;2.97;;
6467;SDS011;3267;48.794;9.928;2023-10-13T04:33:23;5.22;;;2.97;;
6467;SDS011;3267;48.794;9.928;2023-10-13T04:36:08;3.97;;;3.20;;
6467;SDS011;3267;48.794;9.928;2023-10-13T04:38:56;8.27;;;3.47;;
6467;SDS011;3267;48.794;9.928;2023-10-13T04:41:38;4.60;;;3.10;;
6467;SDS011;3267;48.794;9.928;2023-10-13T04:44:15;4.57;;;2.88;;
6467;SDS011;3267;48.794;9.928;2023-10-13T04:47:00;6.97;;;3.55;;
6467;SDS011;3267;48.794;9.928;2023-10-13T04:49:27;6.05;;;2.95;;
6467;SDS011;3267;48.794;9.928;2023-10-13T04:51:54;9.77;;;3.35;;
6467;SDS011;3267;48.794;9.928;2023-10-13T04:54:33;13.68;;;3.50;;
6467;SDS011;3267;48.794;9.928;2023-10-13T04:57:19;5.90;;;2.85;;
6467;SDS011;3267;48.794;9.928;2023-10-13T04:59:58;8.35;;;2.90;;
6467;SDS011;3267;48.794;9.928;2023-10-13T05:02:40;8.43;;;3.38;;
6467;SDS011;3267;48.794;9.928;2023-10-13T05:05:20;6.28;;;3.33;;
6467;SDS011;3267;48.794;9.928;2023-10-13T05:08:05;6.45;;;2.95;;
6467;SDS011;3267;48.794;9.928;2023-10-13T05:10:49;4.47;;;2.60;;
6467;SDS011;3267;48.794;9.928;2023-10-13T05:13:34;4.65;;;2.83;;
6467;SDS011;3267;48.794;9.928;2023-10-13T05:16:18;10.32;;;2.90;;
6467;SDS011;3267;48.794;9.928;2023-10-13T05:19:02;9.57;;;3.08;;
6467;SDS011;3267;48.794;9.928;2023-10-13T05:21:47;7.07;;;3.03;;
6467;SDS011;3267;48.794;9.928;2023-10-13T05:24:31;6.40;;;3.35;;
6467;SDS011;3267;48.794;9.928;2023-10-13T05:27:15;9.60;;;3.10;;
6467;SDS011;3267;48.794;9.928;2023-10-13T05:30:00;7.15;;;3.03;;
6467;SDS011;3267;48.794;9.928;2023-10-13T05:32:44;5.07;;;3.30;;
6467;SDS011;3267;48.794;9.928;2023-10-13T05:35:30;5.78;;;2.75;;
6467;SDS011;3267;48.794;9.928;2023-10-13T05:38:15;9.90;;;3.42;;
6467;SDS011;3267;48.794;9.928;2023-10-13T05:41:00;11.57;;;3.92;;
6467;SDS011;3267;48.794;9.928;2023-10-13T05:43:45;10.65;;;3.47;;
6467;SDS011;3267;48.794;9.928;2023-10-13T05:46:29;5.65;;;2.80;;
6467;SDS011;3267;48.794;9.928;2023-10-13T05:49:06;4.05;;;2.33;;
6467;SDS011;3267;48.794;9.928;2023-10-13T05:51:42;7.72;;;2.60;;
6467;SDS011;3267;48.794;9.928;2023-10-13T05:54:09;5.80;;;2.78;;
6467;SDS011;3267;48.794;9.928;2023-10-13T05:56:45;7.72;;;2.80;;
6467;SDS011;3267;48.794;9.928;2023-10-13T05:59:31;8.18;;;3.30;;
6467;SDS011;3267;48.794;9.928;2023-10-13T06:02:17;3.55;;;2.60;;
6467;SDS011;3267;48.794;9.928;2023-10-13T06:05:09;6.22;;;3.22;;
6467;SDS011;3267;48.794;9.928;2023-10-13T06:07:55;7.30;;;2.88;;
6467;SDS011;3267;48.794;9.928;2023-10-13T06:10:40;7.47;;;2.92;;
6467;SDS011;3267;48.794;9.928;2023-10-13T06:13:25;8.27;;;3.15;;
6467;SDS011;3267;48.794;9.928;2023-10-13T06:16:10;4.78;;;2.75;;
6467;SDS011;3267;48.794;9.928;2023-10-13T06:18:57;7.70;;;2.63;;
6467;SDS011;3267;48.794;9.928;2023-10-13T06:21:42;6.80;;;2.75;;
6467;SDS011;3267;48.794;9.928;2023-10-13T06:24:27;7.70;;;3.25;;
6467;SDS011;3267;48.794;9.928;2023-10-13T06:27:11;6.38;;;2.80;;
6467;SDS011;3267;48.794;9.928;2023-10-13T06:30:00;4.25;;;2.83;;
6467;SDS011;3267;48.794;9.928;2023-10-13T06:32:26;8.68;;;3.10;;
6467;SDS011;3267;48.794;9.928;2023-10-13T06:37:25;4.88;;;2.67;;
6467;SDS011;3267;48.794;9.928;2023-10-13T06:39:52;8.27;;;3.05;;
6467;SDS011;3267;48.794;9.928;2023-10-13T06:42:28;8.02;;;2.80;;
6467;SDS011;3267;48.794;9.928;2023-10-13T06:44:57;9.27;;;2.75;;
6467;SDS011;3267;48.794;9.928;2023-10-13T06:47:25;6.20;;;2.70;;
6467;SDS011;3267;48.794;9.928;2023-10-13T06:49:52;5.28;;;2.78;;
6467;SDS011;3267;48.794;9.928;2023-10-13T06:52:20;9.25;;;3.33;;
6467;SDS011;3267;48.794;9.928;2023-10-13T06:54:50;4.40;;;3.03;;
6467;SDS011;3267;48.794;9.928;2023-10-13T06:57:16;7.43;;;2.95;;
6467;SDS011;3267;48.794;9.928;2023-10-13T06:59:48;9.68;;;3.17;;
6467;SDS011;3267;48.794;9.928;2023-10-13T07:02:14;19.02;;;3.92;;
6467;SDS011;3267;48.794;9.928;2023-10-13T07:04:49;13.20;;;3.38;;
6467;SDS011;3267;48.794;9.928;2023-10-13T07:07:36;12.88;;;3.83;;
6467;SDS011;3267;48.794;9.928;2023-10-13T07:10:10;8.65;;;3.67;;
6467;SDS011;3267;48.794;9.928;2023-10-13T07:12:37;3.80;;;2.92;;
6467;SDS011;3267;48.794;9.928;2023-10-13T07:15:08;7.00;;;3.80;;
6467;SDS011;3267;48.794;9.928;2023-10-13T07:17:47;6.75;;;3.58;;
6467;SDS011;3267;48.794;9.928;2023-10-13T07:20:20;7.43;;;3.03;;
6467;SDS011;3267;48.794;9.928;2023-10-13T07:22:49;6.38;;;2.80;;
6467;SDS011;3267;48.794;9.928;2023-10-13T07:25:27;7.05;;;2.28;;
6467;SDS011;3267;48.794;9.928;2023-10-13T07:27:58;10.73;;;3.08;;
6467;SDS011;3267;48.794;9.928;2023-10-13T07:30:27;7.25;;;3.13;;
6467;SDS011;3267;48.794;9.928;2023-10-13T07:32:53;4.35;;;3.25;;
6467;SDS011;3267;48.794;9.928;2023-10-13T07:35:22;7.38;;;2.88;;
6467;SDS011;3267;48.794;9.928;2023-10-13T07:37:51;13.07;;;2.85;;
6467;SDS011;3267;48.794;9.928;2023-10-13T07:40:21;6.57;;;3.10;;
6467;SDS011;3267;48.794;9.928;2023-10-13T07:43:04;12.50;;;3.63;;
6467;SDS011;3267;48.794;9.928;2023-10-13T07:45:35;4.05;;;2.75;;
6467;SDS011;3267;48.794;9.928;2023-10-13T07:48:02;8.35;;;3.35;;
6467;SDS011;3267;48.794;9.928;2023-10-13T07:50:59;5.18;;;2.38;;
6467;SDS011;3267;48.794;9.928;2023-10-13T07:53:27;9.43;;;2.83;;
6467;SDS011;3267;48.794;9.928;2023-10-13T07:55:55;4.90;;;2.75;;
6467;SDS011;3267;48.794;9.928;2023-10-13T07:58:23;9.02;;;2.75;;
6467;SDS011;3267;48.794;9.928;2023-10-13T08:00:52;9.02;;;2.70;;
6467;SDS011;3267;48.794;9.928;2023-10-13T08:03:24;5.28;;;2.70;;
6467;SDS011;3267;48.794;9.928;2023-10-13T08:06:03;10.02;;;2.67;;
6467;SDS011;3267;48.794;9.928;2023-10-13T08:08:32;5.68;;;2.40;;
6467;SDS011;3267;48.794;9.928;2023-10-13T08:13:40;6.30;;;2.50;;
6467;SDS011;3267;48.794;9.928;2023-10-13T08:16:14;11.15;;;2.60;;
6467;SDS011;3267;48.794;9.928;2023-10-13T08:18:50;11.98;;;3.30;;
6467;SDS011;3267;48.794;9.928;2023-10-13T08:21:16;9.73;;;2.88;;
6467;SDS011;3267;48.794;9.928;2023-10-13T08:23:43;10.18;;;2.83;;
6467;SDS011;3267;48.794;9.928;2023-10-13T08:26:21;9.05;;;2.63;;
6467;SDS011;3267;48.794;9.928;2023-10-13T08:29:17;10.30;;;2.88;;
6467;SDS011;3267;48.794;9.928;2023-10-13T08:31:49;5.15;;;2.70;;
6467;SDS011;3267;48.794;9.928;2023-10-13T08:34:34;9.88;;;2.75;;
6467;SDS011;3267;48.794;9.928;2023-10-13T08:37:05;5.72;;;2.55;;
6467;SDS011;3267;48.794;9.928;2023-10-13T08:39:46;6.72;;;2.00;;
6467;SDS011;3267;48.794;9.928;2023-10-13T08:42:34;10.02;;;2.97;;
6467;SDS011;3267;48.794;9.928;2023-10-13T08:45:11;3.40;;;1.35;;
6467;SDS011;3267;48.794;9.928;2023-10-13T08:53:21;4.20;;;1.85;;
6467;SDS011;3267;48.794;9.928;2023-10-13T08:58:45;7.05;;;2.20;;
6467;SDS011;3267;48.794;9.928;2023-10-13T09:01:21;6.03;;;2.33;;
6467;SDS011;3267;48.794;9.928;2023-10-13T09:06:47;6.72;;;1.77;;
6467;SDS011;3267;48.794;9.928;2023-10-13T09:12:11;10.77;;;2.30;;
6467;SDS011;3267;48.794;9.928;2023-10-13T09:14:43;5.15;;;2.13;;
6467;SDS011;3267;48.794;9.928;2023-10-13T09:17:22;12.82;;;2.13;;
6467;SDS011;3267;48.794;9.928;2023-10-13T09:19:59;6.82;;;2.00;;
6467;SDS011;3267;48.794;9.928;2023-10-13T09:22:44;5.40;;;1.77;;
6467;SDS011;3267;48.794;9.928;2023-10-13T09:25:22;2.90;;;1.80;;
6467;SDS011;3267;48.794;9.928;2023-10-13T09:27:49;7.10;;;2.10;;
6467;SDS011;3267;48.794;9.928;2023-10-13T09:30:18;5.10;;;2.05;;
6467;SDS011;3267;48.794;9.928;2023-10-13T09:32:58;8.88;;;2.13;;
6467;SDS011;3267;48.794;9.928;2023-10-13T09:35:29;7.78;;;2.40;;
6467;SDS011;3267;48.794;9.928;2023-10-13T09:38:02;3.70;;;1.98;;
6467;SDS011;3267;48.794;9.928;2023-10-13T09:40:29;6.82;;;1.92;;
6467;SDS011;3267;48.794;9.928;2023-10-13T09:42:58;9.02;;;2.42;;
6467;SDS011;3267;48.794;9.928;2023-10-13T09:45:33;4.75;;;1.70;;
6467;SDS011;3267;48.794;9.928;2023-10-13T09:48:11;4.15;;;1.92;;
6467;SDS011;3267;48.794;9.928;2023-10-13T09:50:48;3.20;;;1.85;;
6467;SDS011;3267;48.794;9.928;2023-10-13T09:53:14;7.50;;;2.30;;
6467;SDS011;3267;48.794;9.928;2023-10-13T09:55:50;4.40;;;2.20;;
6467;SDS011;3267;48.794;9.928;2023-10-13T09:58:25;4.00;;;2.42;;
6467;SDS011;3267;48.794;9.928;2023-10-13T10:01:01;8.27;;;2.60;;
6467;SDS011;3267;48.794;9.928;2023-10-13T10:03:44;7.88;;;2.20;;
6467;SDS011;3267;48.794;9.928;2023-10-13T10:06:23;7.22;;;2.13;;
6467;SDS011;3267;48.794;9.928;2023-10-13T10:09:05;3.80;;;2.00;;
6467;SDS011;3267;48.794;9.928;2023-10-13T10:14:49;6.00;;;2.20;;
6467;SDS011;3267;48.794;9.928;2023-10-13T10:17:38;6.18;;;2.22;;
6467;SDS011;3267;48.794;9.928;2023-10-13T10:20:07;10.85;;;2.67;;
6467;SDS011;3267;48.794;9.928;2023-10-13T10:22:41;5.97;;;2.30;;
6467;SDS011;3267;48.794;9.928;2023-10-13T10:25:13;9.88;;;2.38;;
6467;SDS011;3267;48.794;9.928;2023-10-13T10:28:00;6.10;;;2.08;;
6467;SDS011;3267;48.794;9.928;2023-10-13T10:30:32;5.05;;;2.40;;
6467;SDS011;3267;48.794;9.928;2023-10-13T10:32:59;3.95;;;2.00;;
6467;SDS011;3267;48.794;9.928;2023-10-13T10:35:26;6.00;;;2.25;;
6467;SDS011;3267;48.794;9.928;2023-10-13T10:37:58;3.45;;;2.00;;
6467;SDS011;3267;48.794;9.928;2023-10-13T10:41:03;3.25;;;2.22;;
6467;SDS011;3267;48.794;9.928;2023-10-13T10:46:14;5.75;;;2.10;;
6467;SDS011;3267;48.794;9.928;2023-10-13T10:48:50;5.30;;;2.38;;
6467;SDS011;3267;48.794;9.928;2023-10-13T10:51:21;4.05;;;1.65;;
6467;SDS011;3267;48.794;9.928;2023-10-13T10:53:48;3.85;;;2.10;;
6467;SDS011;3267;48.794;9.928;2023-10-13T10:56:18;8.07;;;1.92;;
6467;SDS011;3267;48.794;9.928;2023-10-13T10:59:05;10.35;;;2.13;;
6467;SDS011;3267;48.794;9.928;2023-10-13T11:01:45;5.43;;;2.17;;
6467;SDS011;3267;48.794;9.928;2023-10-13T11:04:16;6.30;;;1.88;;
6467;SDS011;3267;48.794;9.928;2023-10-13T11:06:51;7.55;;;2.20;;
6467;SDS011;3267;48.794;9.928;2023-10-13T11:14:44;4.38;;;1.95;;
6467;SDS011;3267;48.794;9.928;2023-10-13T11:17:21;7.90;;;2.30;;
6467;SDS011;3267;48.794;9.928;2023-10-13T11:19:54;12.05;;;2.40;;
6467;SDS011;3267;48.794;9.928;2023-10-13T11:22:20;6.93;;;2.05;;
6467;SDS011;3267;48.794;9.928;2023-10-13T11:25:07;5.32;;;2.05;;
6467;SDS011;3267;48.794;9.928;2023-10-13T11:27:45;5.72;;;2.15;;
6467;SDS011;3267;48.794;9.928;2023-10-13T11:30:13;6.45;;;2.35;;
6467;SDS011;3267;48.794;9.928;2023-10-13T11:32:45;8.68;;;2.17;;
6467;SDS011;3267;48.794;9.928;2023-10-13T11:35:24;4.22;;;2.05;;
6467;SDS011;3267;48.794;9.928;2023-10-13T11:37:50;3.65;;;2.20;;
6467;SDS011;3267;48.794;9.928;2023-10-13T11:40:31;7.55;;;2.13;;
6467;SDS011;3267;48.794;9.928;2023-10-13T11:43:24;4.13;;;1.85;;
6467;SDS011;3267;48.794;9.928;2023-10-13T11:45:51;4.82;;;2.03;;
6467;SDS011;3267;48.794;9.928;2023-10-13T11:48:25;5.82;;;2.10;;
6467;SDS011;3267;48.794;9.928;2023-10-13T11:51:04;5.60;;;1.95;;
6467;SDS011;3267;48.794;9.928;2023-10-13T11:53:34;11.32;;;2.25;;
6467;SDS011;3267;48.794;9.928;2023-10-13T11:56:00;7.75;;;2.47;;
6467;SDS011;3267;48.794;9.928;2023-10-13T11:58:39;8.40;;;3.00;;
6467;SDS011;3267;48.794;9.928;2023-10-13T12:01:06;5.68;;;2.40;;
6467;SDS011;3267;48.794;9.928;2023-10-13T12:03:38;9.43;;;4.32;;
6467;SDS011;3267;48.794;9.928;2023-10-13T12:06:23;13.25;;;4.72;;
6467;SDS011;3267;48.794;9.928;2023-10-13T12:09:04;11.85;;;3.25;;
6467;SDS011;3267;48.794;9.928;2023-10-13T12:11:36;5.25;;;2.38;;
6467;SDS011;3267;48.794;9.928;2023-10-13T12:14:06;6.57;;;2.30;;
6467;SDS011;3267;48.794;9.928;2023-10-13T12:17:07;6.90;;;3.42;;
6467;SDS011;3267;48.794;9.928;2023-10-13T12:19:37;10.20;;;5.22;;
6467;SDS011;3267;48.794;9.928;2023-10-13T12:22:04;8.30;;;3.80;;
6467;SDS011;3267;48.794;9.928;2023-10-13T12:24:33;8.68;;;3.90;;
6467;SDS011;3267;48.794;9.928;2023-10-13T12:26:59;8.43;;;3.20;;
6467;SDS011;3267;48.794;9.928;2023-10-13T12:29:25;9.25;;;2.47;;
6467;SDS011;3267;48.794;9.928;2023-10-13T12:31:57;4.82;;;3.10;;
6467;SDS011;3267;48.794;9.928;2023-10-13T12:34:38;9.68;;;2.10;;
6467;SDS011;3267;48.794;9.928;2023-10-13T12:37:22;10.05;;;2.30;;
6467;SDS011;3267;48.794;9.928;2023-10-13T12:40:04;7.68;;;2.35;;
6467;SDS011;3267;48.794;9.928;2023-10-13T12:42:50;5.28;;;2.17;;
6467;SDS011;3267;48.794;9.928;2023-10-13T12:45:43;5.38;;;2.17;;
6467;SDS011;3267;48.794;9.928;2023-10-13T12:48:29;6.45;;;2.45;;
6467;SDS011;3267;48.794;9.928;2023-10-13T12:51:14;7.80;;;2.10;;
6467;SDS011;3267;48.794;9.928;2023-10-13T12:56:13;10.15;;;2.35;;
6467;SDS011;3267;48.794;9.928;2023-10-13T12:58:38;4.47;;;2.33;;
6467;SDS011;3267;48.794;9.928;2023-10-13T13:01:04;5.57;;;2.30;;
6467;SDS011;3267;48.794;9.928;2023-10-13T13:03:33;6.07;;;2.15;;
6467;SDS011;3267;48.794;9.928;2023-10-13T13:05:59;4.60;;;1.92;;
6467;SDS011;3267;48.794;9.928;2023-10-13T13:08:28;5.20;;;2.20;;
6467;SDS011;3267;48.794;9.928;2023-10-13T13:11:00;5.70;;;1.98;;
6467;SDS011;3267;48.794;9.928;2023-10-13T13:13:26;6.95;;;2.15;;
6467;SDS011;3267;48.794;9.928;2023-10-13T13:15:52;4.68;;;2.15;;
6467;SDS011;3267;48.794;9.928;2023-10-13T13:18:18;5.93;;;2.45;;
6467;SDS011;3267;48.794;9.928;2023-10-13T13:20:44;4.93;;;2.20;;
6467;SDS011;3267;48.794;9.928;2023-10-13T13:23:20;4.07;;;1.85;;
6467;SDS011;3267;48.794;9.928;2023-10-13T13:25:47;6.53;;;2.10;;
6467;SDS011;3267;48.794;9.928;2023-10-13T13:28:13;8.15;;;2.40;;
6467;SDS011;3267;48.794;9.928;2023-10-13T13:30:43;3.72;;;2.25;;
6467;SDS011;3267;48.794;9.928;2023-10-13T13:33:09;2.63;;;1.70;;
6467;SDS011;3267;48.794;9.928;2023-10-13T13:35:41;8.68;;;2.22;;
6467;SDS011;3267;48.794;9.928;2023-10-13T13:38:09;8.90;;;2.42;;
6467;SDS011;3267;48.794;9.928;2023-10-13T13:40:41;4.15;;;2.08;;
6467;SDS011;3267;48.794;9.928;2023-10-13T13:43:12;2.80;;;2.08;;
6467;SDS011;3267;48.794;9.928;2023-10-13T13:45:59;11.80;;;2.90;;
6467;SDS011;3267;48.794;9.928;2023-10-13T13:48:28;9.40;;;3.53;;
6467;SDS011;3267;48.794;9.928;2023-10-13T13:50:54;6.40;;;2.08;;
6467;SDS011;3267;48.794;9.928;2023-10-13T13:53:30;6.28;;;2.25;;
6467;SDS011;3267;48.794;9.928;2023-10-13T13:56:03;4.55;;;2.40;;
6467;SDS011;3267;48.794;9.928;2023-10-13T13:58:32;4.07;;;2.08;;
6467;SDS011;3267;48.794;9.928;2023-10-13T14:01:01;4.65;;;2.22;;
6467;SDS011;3267;48.794;9.928;2023-10-13T14:03:49;5.07;;;2.08;;
6467;SDS011;3267;48.794;9.928;2023-10-13T14:06:16;12.98;;;2.40;;
6467;SDS011;3267;48.794;9.928;2023-10-13T14:08:53;5.22;;;2.20;;
6467;SDS011;3267;48.794;9.928;2023-10-13T14:11:29;6.47;;;2.40;;
6467;SDS011;3267;48.794;9.928;2023-10-13T14:14:11;3.28;;;2.10;;
6467;SDS011;3267;48.794;9.928;2023-10-13T14:16:39;3.58;;;1.90;;
6467;SDS011;3267;48.794;9.928;2023-10-13T14:19:13;13.20;;;2.40;;
6467;SDS011;3267;48.794;9.928;2023-10-13T14:21:55;7.45;;;2.50;;
6467;SDS011;3267;48.794;9.928;2023-10-13T14:24:21;5.88;;;2.20;;
6467;SDS011;3267;48.794;9.928;2023-10-13T14:26:58;7.85;;;2.10;;
6467;SDS011;3267;48.794;9.928;2023-10-13T14:29:41;5.53;;;2.47;;
6467;SDS011;3267;48.794;9.928;2023-10-13T14:32:11;4.65;;;2.88;;
6467;SDS011;3267;48.794;9.928;2023-10-13T14:34:39;7.45;;;2.50;;
6467;SDS011;3267;48.794;9.928;2023-10-13T14:37:06;6.13;;;2.25;;
6467;SDS011;3267;48.794;9.928;2023-10-13T14:39:32;4.60;;;2.03;;
6467;SDS011;3267;48.794;9.928;2023-10-13T14:42:00;5.85;;;2.97;;
6467;SDS011;3267;48.794;9.928;2023-10-13T14:44:27;3.47;;;1.70;;
6467;SDS011;3267;48.794;9.928;2023-10-13T14:46:53;8.85;;;2.38;;
6467;SDS011;3267;48.794;9.928;2023-10-13T14:49:23;8.25;;;2.10;;
6467;SDS011;3267;48.794;9.928;2023-10-13T14:51:48;10.98;;;2.70;;
6467;SDS011;3267;48.794;9.928;2023-10-13T14:54:15;4.72;;;2.28;;
6467;SDS011;3267;48.794;9.928;2023-10-13T14:56:41;8.80;;;2.60;;
6467;SDS011;3267;48.794;9.928;2023-10-13T14:59:09;7.45;;;2.00;;
6467;SDS011;3267;48.794;9.928;2023-10-13T15:01:42;11.57;;;2.83;;
6467;SDS011;3267;48.794;9.928;2023-10-13T15:04:08;5.70;;;2.03;;
6467;SDS011;3267;48.794;9.928;2023-10-13T15:06:34;5.53;;;2.22;;
6467;SDS011;3267;48.794;9.928;2023-10-13T15:09:00;7.72;;;2.45;;
6467;SDS011;3267;48.794;9.928;2023-10-13T15:11:28;8.15;;;2.40;;
6467;SDS011;3267;48.794;9.928;2023-10-13T15:14:03;6.40;;;2.25;;
6467;SDS011;3267;48.794;9.928;2023-10-13T15:16:31;15.25;;;3.70;;
6467;SDS011;3267;48.794;9.928;2023-10-13T15:18:58;12.00;;;3.42;;
6467;SDS011;3267;48.794;9.928;2023-10-13T15:21:26;7.38;;;2.42;;
6467;SDS011;3267;48.794;9.928;2023-10-13T15:24:02;6.75;;;2.72;;
6467;SDS011;3267;48.794;9.928;2023-10-13T15:26:32;12.77;;;2.30;;
6467;SDS011;3267;48.794;9.928;2023-10-13T15:29:06;9.52;;;2.80;;
6467;SDS011;3267;48.794;9.928;2023-10-13T15:31:37;11.77;;;2.80;;
6467;SDS011;3267;48.794;9.928;2023-10-13T15:34:08;9.00;;;3.08;;
6467;SDS011;3267;48.794;9.928;2023-10-13T15:36:41;4.30;;;1.95;;
6467;SDS011;3267;48.794;9.928;2023-10-13T15:39:11;5.00;;;2.10;;
6467;SDS011;3267;48.794;9.928;2023-10-13T15:41:40;7.80;;;2.33;;
6467;SDS011;3267;48.794;9.928;2023-10-13T15:44:10;13.30;;;3.00;;
6467;SDS011;3267;48.794;9.928;2023-10-13T15:46:36;22.92;;;4.18;;
6467;SDS011;3267;48.794;9.928;2023-10-13T15:49:02;5.80;;;2.63;;
6467;SDS011;3267;48.794;9.928;2023-10-13T15:51:34;7.00;;;2.30;;
6467;SDS011;3267;48.794;9.928;2023-10-13T15:54:03;5.97;;;2.20;;
6467;SDS011;3267;48.794;9.928;2023-10-13T15:56:29;5.70;;;2.03;;
6467;SDS011;3267;48.794;9.928;2023-10-13T15:59:00;7.45;;;2.50;;
6467;SDS011;3267;48.794;9.928;2023-10-13T16:01:26;9.05;;;2.75;;
6467;SDS011;3267;48.794;9.928;2023-10-13T16:03:53;9.55;;;2.30;;
6467;SDS011;3267;48.794;9.928;2023-10-13T16:06:19;5.97;;;2.08;;
6467;SDS011;3267;48.794;9.928;2023-10-13T16:08:47;2.63;;;2.03;;
6467;SDS011;3267;48.794;9.928;2023-10-13T16:11:14;12.18;;;2.25;;
6467;SDS011;3267;48.794;9.928;2023-10-13T16:13:46;4.80;;;2.03;;
6467;SDS011;3267;48.794;9.928;2023-10-13T16:16:19;5.60;;;2.42;;
6467;SDS011;3267;48.794;9.928;2023-10-13T16:18:47;7.13;;;2.88;;
6467;SDS011;3267;48.794;9.928;2023-10-13T16:21:16;5.90;;;2.00;;
6467;SDS011;3267;48.794;9.928;2023-10-13T16:23:42;6.70;;;2.20;;
6467;SDS011;3267;48.794;9.928;2023-10-13T16:26:18;7.75;;;1.85;;
6467;SDS011;3267;48.794;9.928;2023-10-13T16:28:49;4.15;;;1.98;;
6467;SDS011;3267;48.794;9.928;2023-10-13T16:31:19;6.90;;;2.28;;
6467;SDS011;3267;48.794;9.928;2023-10-13T16:33:48;3.25;;;2.15;;
6467;SDS011;3267;48.794;9.928;2023-10-13T16:36:15;11.05;;;2.30;;
6467;SDS011;3267;48.794;9.928;2023-10-13T16:38:40;8.13;;;2.13;;
6467;SDS011;3267;48.794;9.928;2023-10-13T16:41:10;7.82;;;1.95;;
6467;SDS011;3267;48.794;9.928;2023-10-13T16:43:38;10.18;;;2.20;;
6467;SDS011;3267;48.794;9.928;2023-10-13T16:46:11;3.58;;;1.92;;
6467;SDS011;3267;48.794;9.928;2023-10-13T16:48:38;7.47;;;2.33;;
6467;SDS011;3267;48.794;9.928;2023-10-13T16:51:04;7.65;;;2.10;;
6467;SDS011;3267;48.794;9.928;2023-10-13T16:53:31;7.25;;;2.30;;
6467;SDS011;3267;48.794;9.928;2023-10-13T16:56:01;5.30;;;2.38;;
6467;SDS011;3267;48.794;9.928;2023-10-13T16:58:27;4.82;;;2.15;;
6467;SDS011;3267;48.794;9.928;2023-10-13T17:00:55;3.90;;;2.17;;
6467;SDS011;3267;48.794;9.928;2023-10-13T17:03:21;2.72;;;1.75;;
6467;SDS011;3267;48.794;9.928;2023-10-13T17:05:55;4.72;;;2.22;;
6467;SDS011;3267;48.794;9.928;2023-10-13T17:08:22;9.00;;;2.10;;
6467;SDS011;3267;48.794;9.928;2023-10-13T17:10:48;7.95;;;2.58;;
6467;SDS011;3267;48.794;9.928;2023-10-13T17:13:15;4.30;;;2.03;;
6467;SDS011;3267;48.794;9.928;2023-10-13T17:15:41;4.90;;;2.25;;
6467;SDS011;3267;48.794;9.928;2023-10-13T17:18:07;8.25;;;2.20;;
6467;SDS011;3267;48.794;9.928;2023-10-13T17:20:37;7.72;;;2.25;;
6467;SDS011;3267;48.794;9.928;2023-10-13T17:23:04;7.63;;;2.25;;
6467;SDS011;3267;48.794;9.928;2023-10-13T17:25:35;8.00;;;2.22;;
6467;SDS011;3267;48.794;9.928;2023-10-13T17:28:01;6.72;;;2.40;;
6467;SDS011;3267;48.794;9.928;2023-10-13T17:30:38;5.80;;;2.00;;
6467;SDS011;3267;48.794;9.928;2023-10-13T17:33:04;4.88;;;1.88;;
6467;SDS011;3267;48.794;9.928;2023-10-13T17:35:37;10.20;;;2.17;;
6467;SDS011;3267;48.794;9.928;2023-10-13T17:38:04;7.38;;;2.42;;
6467;SDS011;3267;48.794;9.928;2023-10-13T17:40:30;10.32;;;2.00;;
6467;SDS011;3267;48.794;9.928;2023-10-13T17:42:59;6.38;;;2.30;;
6467;SDS011;3267;48.794;9.928;2023-10-13T17:45:24;6.82;;;1.98;;
6467;SDS011;3267;48.794;9.928;2023-10-13T17:47:50;12.00;;;2.25;;
6467;SDS011;3267;48.794;9.928;2023-10-13T17:50:16;5.70;;;2.45;;
6467;SDS011;3267;48.794;9.928;2023-10-13T17:52:42;9.98;;;2.13;;
6467;SDS011;3267;48.794;9.928;2023-10-13T17:55:12;7.25;;;2.33;;
6467;SDS011;3267;48.794;9.928;2023-10-13T17:57:39;8.25;;;2.28;;
6467;SDS011;3267;48.794;9.928;2023-10-13T18:00:07;6.47;;;2.00;;
6467;SDS011;3267;48.794;9.928;2023-10-13T18:02:38;5.60;;;2.65;;
6467;SDS011;3267;48.794;9.928;2023-10-13T18:05:16;4.82;;;2.15;;
6467;SDS011;3267;48.794;9.928;2023-10-13T18:07:43;6.00;;;2.10;;
6467;SDS011;3267;48.794;9.928;2023-10-13T18:10:09;3.97;;;1.92;;
6467;SDS011;3267;48.794;9.928;2023-10-13T18:12:41;6.45;;;2.20;;
6467;SDS011;3267;48.794;9.928;2023-10-13T18:15:08;3.88;;;2.53;;
6467;SDS011;3267;48.794;9.928;2023-10-13T18:17:37;3.78;;;1.88;;
6467;SDS011;3267;48.794;9.928;2023-10-13T18:20:04;7.25;;;2.78;;
6467;SDS011;3267;48.794;9.928;2023-10-13T18:22:38;4.55;;;2.55;;
6467;SDS011;3267;48.794;9.928;2023-10-13T18:25:05;4.43;;;2.72;;
6467;SDS011;3267;48.794;9.928;2023-10-13T18:27:38;6.43;;;2.30;;
6467;SDS011;3267;48.794;9.928;2023-10-13T18:30:07;10.38;;;2.10;;
6467;SDS011;3267;48.794;9.928;2023-10-13T18:32:38;2.78;;;2.15;;
6467;SDS011;3267;48.794;9.928;2023-10-13T18:35:08;8.98;;;2.33;;
6467;SDS011;3267;48.794;9.928;2023-10-13T18:37:36;9.93;;;2.80;;
6467;SDS011;3267;48.794;9.928;2023-10-13T18:40:10;7.63;;;2.50;;
6467;SDS011;3267;48.794;9.928;2023-10-13T18:42:40;4.80;;;2.45;;
6467;SDS011;3267;48.794;9.928;2023-10-13T18:45:15;8.93;;;1.85;;
6467;SDS011;3267;48.794;9.928;2023-10-13T18:47:47;3.47;;;2.10;;
6467;SDS011;3267;48.794;9.928;2023-10-13T18:50:18;3.15;;;2.08;;
6467;SDS011;3267;48.794;9.928;2023-10-13T18:52:45;6.65;;;2.22;;
6467;SDS011;3267;48.794;9.928;2023-10-13T18:55:11;6.28;;;2.33;;
6467;SDS011;3267;48.794;9.928;2023-10-13T18:57:42;6.18;;;2.22;;
6467;SDS011;3267;48.794;9.928;2023-10-13T19:00:09;8.32;;;2.72;;
6467;SDS011;3267;48.794;9.928;2023-10-13T19:02:47;4.63;;;1.98;;
6467;SDS011;3267;48.794;9.928;2023-10-13T19:05:16;11.70;;;2.53;;
6467;SDS011;3267;48.794;9.928;2023-10-13T19:07:42;5.13;;;2.70;;
6467;SDS011;3267;48.794;9.928;2023-10-13T19:10:07;4.45;;;2.13;;
6467;SDS011;3267;48.794;9.928;2023-10-13T19:12:43;2.95;;;2.08;;
6467;SDS011;3267;48.794;9.928;2023-10-13T19:15:11;5.55;;;2.20;;
6467;SDS011;3267;48.794;9.928;2023-10-13T19:17:38;5.82;;;2.10;;
6467;SDS011;3267;48.794;9.928;2023-10-13T19:20:06;6.60;;;2.22;;
6467;SDS011;3267;48.794;9.928;2023-10-13T19:22:44;6.28;;;2.25;;
6467;SDS011;3267;48.794;9.928;2023-10-13T19:25:16;5.07;;;2.17;;
6467;SDS011;3267;48.794;9.928;2023-10-13T19:27:41;5.70;;;1.88;;
6467;SDS011;3267;48.794;9.928;2023-10-13T19:30:07;7.38;;;2.10;;
6467;SDS011;3267;48.794;9.928;2023-10-13T19:32:33;4.45;;;1.80;;
6467;SDS011;3267;48.794;9.928;2023-10-13T19:34:59;7.47;;;1.50;;
6467;SDS011;3267;48.794;9.928;2023-10-13T19:37:24;4.43;;;1.55;;
6467;SDS011;3267;48.794;9.928;2023-10-13T19:39:50;5.20;;;1.60;;
6467;SDS011;3267;48.794;9.928;2023-10-13T19:42:16;5.43;;;1.80;;
6467;SDS011;3267;48.794;9.928;2023-10-13T19:44:46;6.63;;;1.60;;
6467;SDS011;3267;48.794;9.928;2023-10-13T19:47:12;6.00;;;1.45;;
6467;SDS011;3267;48.794;9.928;2023-10-13T19:49:40;2.55;;;1.25;;
6467;SDS011;3267;48.794;9.928;2023-10-13T19:52:08;4.43;;;1.55;;
6467;SDS011;3267;48.794;9.928;2023-10-13T19:54:34;5.25;;;1.60;;
6467;SDS011;3267;48.794;9.928;2023-10-13T19:57:04;2.60;;;1.60;;
6467;SDS011;3267;48.794;9.928;2023-10-13T19:59:30;4.47;;;1.80;;
6467;SDS011;3267;48.794;9.928;2023-10-13T20:01:56;6.18;;;2.20;;
6467;SDS011;3267;48.794;9.928;2023-10-13T20:04:22;4.00;;;1.52;;
6467;SDS011;3267;48.794;9.928;2023-10-13T20:06:48;3.65;;;1.60;;
6467;SDS011;3267;48.794;9.928;2023-10-13T20:09:20;1.83;;;1.58;;
6467;SDS011;3267;48.794;9.928;2023-10-13T20:11:52;7.68;;;1.80;;
6467;SDS011;3267;48.794;9.928;2023-10-13T20:14:19;3.53;;;1.52;;
6467;SDS011;3267;48.794;9.928;2023-10-13T20:16:50;5.53;;;1.55;;
6467;SDS011;3267;48.794;9.928;2023-10-13T20:19:19;4.22;;;1.50;;
6467;SDS011;3267;48.794;9.928;2023-10-13T20:21:44;4.95;;;1.80;;
6467;SDS011;3267;48.794;9.928;2023-10-13T20:24:11;8.07;;;1.40;;
6467;SDS011;3267;48.794;9.928;2023-10-13T20:26:39;6.30;;;2.13;;